Nearby METAR Reports

 

KPMD - Palmdale, California, USA
Distance from station: NNE 12mi, 19km
Updated: Sat, 15-Dec-2018 9:53pm PST
Clear
Clear
 Wind from W
Wind: W 3 mph , 6 km/h
Temperature: 39°F , 4°C
Dew Point: 28°F , -2°C
Humidity: 65%
Barometer: 30.22 inHg , 1023.4 hPa
Clouds: Clear
Visibility: 10 miles , 16 km
2018/12/16 05:53 KPMD 160553Z 28003KT 10SM CLR 04/M02 A3022 RMK AO2 SLP236 T00441017 10133 20039 53011
KWJF - Lancaster/Fox, California, USA
Distance from station: N 17mi, 27km
Updated: Sat, 15-Dec-2018 9:56pm PST
Clear
Clear
 Wind from W
Wind: W 7 mph , 11 km/h
Temperature: 36°F , 2°C
Wind Chill: 30°F , -1°C
Dew Point: 28°F , -2°C
Humidity: 75%
Barometer: 30.22 inHg , 1023.4 hPa
Clouds: Clear
Visibility: 10 miles , 16 km
2018/12/16 05:56 KWJF 160556Z AUTO 26006KT 10SM CLR 02/M02 A3022 RMK AO2 SLP248 T00171017 10133 20017 53011
 
KMWS - Mount Wilson, California, USA
Distance from station: SSE 18mi, 30km
Updated: Wed, 13-May-2015 6:45am PDT
NOT Current

 Wind from S
Wind: S 3 mph , 6 km/h, Gust: 5 mph , 7 km/h
Temperature: 43°F , 6°C
Dew Point: -0°F , -18°C
Humidity: 16%
2015/05/13 13:45 KMWS 131345Z 18003G04KT 06/M18 RMK SNOW DEPTH 1.00
KWHP - La / Whiteman, California, USA
Distance from station: SW 21mi, 34km
Updated: Sat, 15-Dec-2018 7:55pm PST
NOT Current
Clear
Clear
 Wind from calm
Wind: Calm
Temperature: 57°F , 14°C
Dew Point: 32°F , 0°C
Humidity: 39%
Barometer: 30.13 inHg , 1020.3 hPa
Clouds: Clear
Visibility: 10 miles , 16 km
2018/12/16 03:55 KWHP 160355Z 00000KT 10SM SKC 14/00 A3013
 
KBUR - Burbank, California, USA
Distance from station: SSW 22mi, 35km
Updated: Sat, 15-Dec-2018 9:53pm PST
Clear
Clear
 Wind from calm
Wind: Calm
Temperature: 54°F , 12°C
Dew Point: 37°F , 3°C
Humidity: 54%
Barometer: 30.11 inHg , 1019.6 hPa
Clouds: Clear
Visibility: 10 miles , 16 km
2018/12/16 05:53 KBUR 160553Z AUTO 00000KT 10SM CLR 12/03 A3011 RMK AO2 SLP189 T01170028 10211 20111 51011 $
KVNY - Van Nuys, California, USA
Distance from station: SW 25mi, 40km
Updated: Sat, 15-Dec-2018 9:51pm PST
Clear
Clear
 Wind from calm
Wind: Calm
Temperature: 55°F , 13°C
Dew Point: 43°F , 6°C
Humidity: 63%
Barometer: 30.11 inHg , 1019.6 hPa
Clouds: Clear
Visibility: 10 miles , 16 km
2018/12/16 05:51 KVNY 160551Z 00000KT 10SM CLR 13/06 A3011 RMK AO2 SLP193 T01280056 10222 20128 51011 $
 
KEDW - Edwards Afb, California, USA
Distance from station: NNE 33mi, 53km
Updated: Sat, 15-Dec-2018 9:58pm PST
Clear
Clear
 Wind from calm
Wind: Calm
Temperature: 37°F , 3°C
Dew Point: 37°F , 3°C
Humidity: 100%
Barometer: 30.20 inHg , 1022.7 hPa
Clouds: Clear
Visibility: 10 miles , 16 km
2018/12/16 05:58 KEDW 160558Z AUTO 00000KT 10SM CLR 03/03 A3020 RMK AO2 SLP236 T00300029 10137 20026 52013
KSMO - Santa Monica, California, USA
Distance from station: SSW 35mi, 57km
Updated: Sat, 15-Dec-2018 9:51pm PST
Clear
Clear
 Wind from NE
Wind: NE 3 mph , 6 km/h
Temperature: 57°F , 14°C
Dew Point: 45°F , 7°C
Humidity: 63%
Barometer: 30.11 inHg , 1019.6 hPa
Clouds: Clear
Visibility: 10 miles , 16 km
2018/12/16 05:51 KSMO 160551Z AUTO 04003KT 10SM CLR 14/07 A3011 RMK AO2 SLP196 T01390072 10194 20139 51011
 
KLAX - Los Angeles, California, USA
Distance from station: SSW 39mi, 63km
Updated: Sat, 15-Dec-2018 9:53pm PST
Clear
Clear
 Wind from E
Wind: E 6 mph , 9 km/h
Temperature: 57°F , 14°C
Dew Point: 52°F , 11°C
Humidity: 82%
Barometer: 30.11 inHg , 1019.6 hPa
Clouds: Clear
Visibility: 10 miles , 16 km
2018/12/16 05:53 KLAX 160553Z 09005KT 10SM CLR 14/11 A3011 RMK AO2 SLP195 T01390111 10172 20139 51011
KMHV - Mojave, California, USA
Distance from station: N 41mi, 66km
Updated: Sat, 15-Dec-2018 10:20pm PST
Few Clouds
Few Clouds
 Wind from N
Wind: N 8 mph , 13 km/h
Temperature: 41°F , 5°C
Wind Chill: 36°F , 2°C
Dew Point: 21°F , -6°C
Humidity: 45%
Barometer: 30.21 inHg , 1023 hPa
Clouds: Few Clouds
Visibility: 10 miles , 16 km
Cloud details: Few Clouds 2800 ft
Few Clouds 3800 ft
2018/12/16 06:20 KMHV 160620Z AUTO 35007KT 10SM FEW028 FEW038 05/M06 A3021 RMK A01
 
KFUL - Fullerton, California, USA
Distance from station: SSE 44mi, 70km
Updated: Sat, 15-Dec-2018 9:53pm PST
Clear
Clear
 Wind from E
Wind: E 6 mph , 9 km/h
Temperature: 54°F , 12°C
Dew Point: 43°F , 6°C
Humidity: 67%
Barometer: 30.11 inHg , 1019.6 hPa
Clouds: Clear
Visibility: 10 miles , 16 km
2018/12/16 05:53 KFUL 160553Z AUTO 09005KT 10SM CLR 12/06 A3011 RMK AO2 SLP195 T01220056 10222 20122 51012
KONT - Ontario, California, USA
Distance from station: SE 45mi, 72km
Updated: Sat, 15-Dec-2018 9:53pm PST
Clear
Clear
 Wind from NE
Wind: NE 5 mph , 7 km/h
Temperature: 55°F , 13°C
Dew Point: 34°F , 1°C
Humidity: 44%
Barometer: 30.13 inHg , 1020.3 hPa
Clouds: Clear
Visibility: 10 miles , 16 km
2018/12/16 05:53 KONT 160553Z 04004KT 10SM CLR 13/01 A3013 RMK AO2 SLP198 T01280006 10222 20128 51014
 
KLGB - Long Beach, California, USA
Distance from station: S 46mi, 74km
Updated: Sat, 15-Dec-2018 9:53pm PST
Clear
Clear
 Wind from calm
Wind: Calm
Temperature: 55°F , 13°C
Dew Point: 52°F , 11°C
Humidity: 88%
Barometer: 30.12 inHg , 1020 hPa
Clouds: Clear
Visibility: 8 miles , 13 km
2018/12/16 05:53 KLGB 160553Z 00000KT 8SM CLR 13/11 A3012 RMK AO2 SLP198 T01330111 10200 20122 51011 $
KVCV - Victorville, California, USA
Distance from station: E 46mi, 74km
Updated: Sat, 15-Dec-2018 7:46pm PST
NOT Current
Clear
Clear
 Wind from calm
Wind: Calm
Barometer: 30.19 inHg , 1022.4 hPa
Clouds: Clear
Visibility: 10 miles , 16 km
2018/12/16 03:46 KVCV 160346Z 00000KT 10SM SKC A3019
 
KTSP - Tehachapi, California, USA
Distance from station: NNW 48mi, 77km
Updated: Sat, 15-Dec-2018 10:35pm PST
Clear
Clear
 Wind from SSE
Wind: SSE 7 mph , 11 km/h
Temperature: 41°F , 5°C
Wind Chill: 36°F , 2°C
Dew Point: 18°F , -8°C
Humidity: 39%
Barometer: 30.21 inHg , 1023 hPa
Clouds: Clear
Visibility: 10 miles , 16 km
2018/12/16 06:35 KTSP 160635Z AUTO 15006KT 10SM CLR 05/M08 A3021 RMK AO2